createdAt,value
2022-11-15T00:01:08.774Z,13.93
2022-11-15T00:03:55.919Z,4.82
2022-11-15T00:06:42.893Z,6.30
2022-11-15T00:09:31.313Z,4.18
2022-11-15T00:12:18.934Z,1.40
2022-11-15T00:15:06.522Z,4.03
2022-11-15T00:17:53.996Z,3.72
2022-11-15T00:20:41.601Z,3.75
2022-11-15T00:23:29.246Z,3.97
2022-11-15T00:26:17.934Z,2.70
2022-11-15T00:29:05.051Z,5.80
2022-11-15T00:31:52.300Z,2.88
2022-11-15T00:34:39.896Z,2.03
2022-11-15T00:37:27.412Z,2.38
2022-11-15T00:40:16.270Z,4.18
2022-11-15T00:43:05.161Z,2.47
2022-11-15T00:45:52.340Z,4.10
2022-11-15T00:48:39.432Z,2.83
2022-11-15T00:51:26.888Z,3.10
2022-11-15T00:54:14.492Z,5.13
2022-11-15T00:57:02.072Z,6.70
2022-11-15T00:59:54.619Z,6.63
2022-11-15T01:02:44.809Z,4.07
2022-11-15T01:05:34.224Z,4.80
2022-11-15T01:08:21.574Z,7.30
2022-11-15T01:11:10.182Z,2.85
2022-11-15T01:13:58.261Z,2.88
2022-11-15T01:16:47.097Z,2.45
2022-11-15T01:19:34.341Z,2.55
2022-11-15T01:22:21.628Z,3.33
2022-11-15T01:25:08.963Z,5.78
2022-11-15T01:27:56.169Z,3.92
2022-11-15T01:30:43.527Z,1.88
2022-11-15T01:33:32.483Z,3.50
2022-11-15T01:36:20.868Z,6.50
2022-11-15T01:39:08.114Z,3.03
2022-11-15T01:41:55.191Z,5.13
2022-11-15T01:44:44.400Z,2.55
2022-11-15T01:47:33.953Z,5.80
2022-11-15T01:50:24.878Z,4.90
2022-11-15T01:53:12.347Z,5.57
2022-11-15T01:55:59.347Z,3.83
2022-11-15T01:58:47.920Z,3.90
2022-11-15T02:01:35.973Z,2.72
2022-11-15T02:04:25.559Z,6.07
2022-11-15T02:07:16.090Z,2.65
2022-11-15T02:10:06.872Z,1.95
2022-11-15T02:12:55.144Z,1.98
2022-11-15T02:15:48.816Z,1.63
2022-11-15T02:18:37.940Z,1.98
2022-11-15T02:21:27.760Z,1.85
2022-11-15T02:24:41.854Z,2.67
2022-11-15T02:27:49.931Z,1.88
2022-11-15T02:30:41.094Z,1.23
2022-11-15T02:33:33.635Z,2.50
2022-11-15T02:36:26.837Z,4.28
2022-11-15T02:39:17.897Z,2.13
2022-11-15T02:42:26.801Z,0.80
2022-11-15T02:45:15.694Z,3.78
2022-11-15T02:48:06.188Z,8.10
2022-11-15T02:50:54.185Z,4.05
2022-11-15T02:53:41.080Z,1.95
2022-11-15T02:56:27.991Z,1.27
2022-11-15T02:59:29.993Z,2.25
2022-11-15T03:02:23.028Z,8.07
2022-11-15T03:05:16.788Z,2.17
2022-11-15T03:08:07.883Z,1.92
2022-11-15T03:11:00.445Z,1.42
2022-11-15T03:13:51.792Z,2.05
2022-11-15T03:16:40.571Z,1.25
2022-11-15T03:19:32.815Z,1.23
2022-11-15T03:22:23.113Z,0.55
2022-11-15T03:25:12.840Z,4.45
2022-11-15T03:28:01.669Z,2.60
2022-11-15T03:30:50.340Z,1.98
2022-11-15T03:33:37.690Z,0.80
2022-11-15T03:36:26.156Z,2.25
2022-11-15T03:39:20.415Z,2.13
2022-11-15T03:42:13.767Z,1.95
2022-11-15T03:45:05.266Z,1.20
2022-11-15T03:47:55.849Z,2.13
2022-11-15T03:50:44.199Z,3.65
2022-11-15T03:53:33.425Z,1.17
2022-11-15T03:56:22.091Z,2.75
2022-11-15T03:59:09.159Z,1.95
2022-11-15T04:01:56.187Z,1.58
2022-11-15T04:04:43.407Z,0.38
2022-11-15T04:07:31.853Z,1.20
2022-11-15T04:10:19.488Z,1.50
2022-11-15T04:13:08.105Z,2.10
2022-11-15T04:15:55.083Z,0.98
2022-11-15T04:18:42.253Z,0.85
2022-11-15T04:22:01.247Z,2.17
2022-11-15T04:24:48.475Z,2.85
2022-11-15T04:27:36.015Z,4.72
2022-11-15T04:30:24.634Z,5.18
2022-11-15T04:33:12.111Z,2.05
2022-11-15T04:36:16.756Z,4.00
2022-11-15T04:39:06.662Z,5.07
2022-11-15T04:41:53.879Z,7.63
2022-11-15T04:44:41.180Z,4.60
2022-11-15T04:47:30.677Z,2.50
2022-11-15T04:50:18.127Z,2.05
2022-11-15T04:53:05.322Z,4.82
2022-11-15T04:55:52.387Z,4.43
2022-11-15T04:58:39.477Z,7.65
2022-11-15T05:01:26.529Z,4.22
2022-11-15T05:04:23.983Z,6.95
2022-11-15T05:07:11.409Z,3.05
2022-11-15T05:09:58.508Z,3.40
2022-11-15T05:12:45.556Z,4.60
2022-11-15T05:15:33.002Z,4.22
2022-11-15T05:18:23.556Z,4.05
2022-11-15T05:21:23.973Z,3.38
2022-11-15T05:24:12.307Z,3.85
2022-11-15T05:26:59.322Z,3.17
2022-11-15T05:29:46.858Z,25.75
2022-11-15T05:32:37.197Z,10.05
2022-11-15T05:35:29.651Z,6.93
2022-11-15T05:38:18.257Z,5.35
2022-11-15T05:41:06.020Z,4.90
2022-11-15T05:43:54.115Z,2.47
2022-11-15T05:46:42.347Z,2.30
2022-11-15T05:49:32.265Z,3.30
2022-11-15T05:52:21.931Z,9.60
2022-11-15T05:55:11.333Z,15.50
2022-11-15T05:57:58.730Z,5.70
2022-11-15T06:00:45.705Z,3.95
2022-11-15T06:03:33.352Z,4.75
2022-11-15T06:06:20.633Z,3.67
2022-11-15T06:09:07.735Z,4.10
2022-11-15T06:11:58.941Z,4.82
2022-11-15T06:14:46.170Z,23.80
2022-11-15T06:17:36.778Z,11.70
2022-11-15T06:20:23.762Z,7.18
2022-11-15T06:23:11.165Z,9.13
2022-11-15T06:26:00.166Z,16.58
2022-11-15T06:28:49.166Z,9.43
2022-11-15T06:31:36.217Z,10.55
2022-11-15T06:34:23.758Z,11.13
2022-11-15T06:37:11.022Z,4.63
2022-11-15T06:39:58.190Z,7.43
2022-11-15T06:42:45.174Z,4.63
2022-11-15T06:45:33.976Z,15.35
2022-11-15T06:48:21.279Z,7.85
2022-11-15T06:51:09.385Z,6.75
2022-11-15T06:53:56.708Z,4.30
2022-11-15T06:56:44.142Z,15.15
2022-11-15T06:59:34.205Z,7.07
2022-11-15T07:02:27.216Z,3.40
2022-11-15T07:05:14.541Z,6.00
2022-11-15T07:08:02.661Z,3.42
2022-11-15T07:10:50.014Z,5.60
2022-11-15T07:13:38.484Z,3.42
2022-11-15T07:16:27.677Z,2.28
2022-11-15T07:19:16.534Z,4.68
2022-11-15T07:22:03.911Z,3.58
2022-11-15T07:24:51.154Z,10.85
2022-11-15T07:27:38.981Z,2.70
2022-11-15T07:30:26.889Z,5.13
2022-11-15T07:33:13.925Z,16.40
2022-11-15T07:36:04.166Z,3.45
2022-11-15T07:38:51.514Z,3.60
2022-11-15T07:41:38.579Z,8.75
2022-11-15T07:44:25.949Z,3.40
2022-11-15T07:47:13.054Z,3.22
2022-11-15T07:50:00.273Z,6.38
2022-11-15T07:52:49.472Z,2.65
2022-11-15T07:55:36.933Z,2.90
2022-11-15T07:58:36.158Z,3.95
2022-11-15T08:01:23.206Z,2.17
2022-11-15T08:04:12.769Z,1.92
2022-11-15T08:07:00.119Z,3.53
2022-11-15T08:09:49.712Z,2.15
2022-11-15T08:12:36.842Z,2.35
2022-11-15T08:15:24.102Z,5.15
2022-11-15T08:18:12.927Z,6.82
2022-11-15T08:21:01.609Z,3.08
2022-11-15T08:23:49.001Z,3.28
2022-11-15T08:26:37.757Z,2.80
2022-11-15T08:29:25.230Z,6.78
2022-11-15T08:32:12.910Z,2.60
2022-11-15T08:35:00.588Z,3.53
2022-11-15T08:37:47.664Z,3.15
2022-11-15T08:40:35.878Z,3.60
2022-11-15T08:43:24.495Z,4.28
2022-11-15T08:46:14.278Z,2.88
2022-11-15T08:49:01.527Z,4.50
2022-11-15T08:51:48.479Z,7.75
2022-11-15T08:54:35.970Z,5.07
2022-11-15T08:57:23.478Z,4.50
2022-11-15T09:00:14.584Z,4.45
2022-11-15T09:03:01.808Z,3.28
2022-11-15T09:05:49.088Z,4.13
2022-11-15T09:08:51.588Z,6.40
2022-11-15T09:11:47.701Z,5.28
2022-11-15T09:14:35.078Z,4.57
2022-11-15T09:17:25.217Z,3.10
2022-11-15T09:20:12.415Z,3.10
2022-11-15T09:23:02.153Z,3.85
2022-11-15T09:25:49.122Z,3.55
2022-11-15T09:28:36.607Z,2.92
2022-11-15T09:31:24.009Z,6.03
2022-11-15T09:34:12.717Z,1.73
2022-11-15T09:36:59.946Z,3.72
2022-11-15T09:39:47.142Z,7.50
2022-11-15T09:42:42.446Z,7.60
2022-11-15T09:45:33.550Z,3.40
2022-11-15T09:48:54.207Z,8.65
2022-11-15T09:51:48.993Z,5.23
2022-11-15T09:54:51.525Z,4.57
2022-11-15T09:57:16.216Z,3.75
2022-11-15T09:59:50.524Z,7.65
2022-11-15T10:02:26.867Z,4.60
2022-11-15T10:04:56.048Z,4.35
2022-11-15T10:07:28.855Z,3.42
2022-11-15T10:10:03.105Z,4.13
2022-11-15T10:12:32.803Z,4.25
2022-11-15T10:15:03.296Z,11.10
2022-11-15T10:17:44.025Z,4.35
2022-11-15T10:20:16.063Z,5.32
2022-11-15T10:22:49.480Z,9.95
2022-11-15T10:25:22.451Z,11.48
2022-11-15T10:27:56.664Z,4.72
2022-11-15T10:30:26.075Z,6.30
2022-11-15T10:32:55.008Z,3.45
2022-11-15T10:35:26.190Z,6.47
2022-11-15T10:38:06.703Z,8.32
2022-11-15T10:40:35.827Z,3.28
2022-11-15T10:43:08.484Z,8.20
2022-11-15T10:45:37.333Z,6.97
2022-11-15T10:48:25.618Z,3.05
2022-11-15T10:50:55.120Z,15.35
2022-11-15T10:53:29.967Z,6.35
2022-11-15T10:56:00.598Z,3.17
2022-11-15T10:58:33.955Z,6.43
2022-11-15T11:01:13.771Z,8.85
2022-11-15T11:03:43.477Z,4.72
2022-11-15T11:06:13.407Z,16.88
2022-11-15T11:08:55.371Z,20.20
2022-11-15T11:11:24.258Z,2.92
2022-11-15T11:13:53.057Z,3.80
2022-11-15T11:16:29.121Z,16.15
2022-11-15T11:19:04.966Z,7.68
2022-11-15T11:21:40.416Z,4.97
2022-11-15T11:24:13.531Z,2.63
2022-11-15T11:26:45.096Z,3.30
2022-11-15T11:29:23.041Z,7.00
2022-11-15T11:31:58.083Z,5.70
2022-11-15T11:34:36.068Z,5.70
2022-11-15T11:37:10.448Z,6.78
2022-11-15T11:39:46.284Z,5.05
2022-11-15T11:42:18.048Z,5.18
2022-11-15T11:44:51.204Z,9.05
2022-11-15T11:49:52.276Z,6.40
2022-11-15T11:52:24.785Z,13.98
2022-11-15T11:55:01.254Z,5.95
2022-11-15T11:57:35.992Z,8.45
2022-11-15T12:00:07.777Z,6.25
2022-11-15T12:02:47.652Z,5.30
2022-11-15T12:05:18.803Z,18.70
2022-11-15T12:07:49.638Z,9.13
2022-11-15T12:10:24.704Z,11.95
2022-11-15T12:12:58.004Z,9.15
2022-11-15T12:15:28.445Z,9.85
2022-11-15T12:17:57.747Z,5.70
2022-11-15T12:20:28.039Z,13.15
2022-11-15T12:22:58.518Z,11.68
2022-11-15T12:25:32.251Z,15.63
2022-11-15T12:28:04.453Z,10.48
2022-11-15T12:30:44.891Z,13.15
2022-11-15T12:33:28.441Z,9.77
2022-11-15T12:36:00.435Z,8.52
2022-11-15T12:38:44.132Z,13.38
2022-11-15T12:41:18.368Z,7.85
2022-11-15T12:43:47.870Z,15.90
2022-11-15T12:46:22.958Z,9.25
2022-11-15T12:49:06.587Z,6.22
2022-11-15T12:52:06.335Z,8.65
2022-11-15T12:54:54.973Z,4.75
2022-11-15T12:57:41.692Z,10.35
2022-11-15T13:00:29.068Z,9.15
2022-11-15T13:03:12.581Z,4.45
2022-11-15T13:06:08.037Z,11.95
2022-11-15T13:09:00.517Z,4.38
2022-11-15T13:11:45.257Z,6.20
2022-11-15T13:14:31.398Z,5.05
2022-11-15T13:17:01.300Z,4.78
2022-11-15T13:19:31.463Z,9.50
2022-11-15T13:22:17.078Z,5.32
2022-11-15T13:24:47.212Z,5.32
2022-11-15T13:27:18.301Z,6.28
2022-11-15T13:29:47.014Z,8.80
2022-11-15T13:32:16.499Z,6.50
2022-11-15T13:34:52.299Z,9.02
2022-11-15T13:37:32.350Z,6.35
2022-11-15T13:40:15.874Z,6.05
2022-11-15T13:42:46.205Z,6.53
2022-11-15T13:45:17.335Z,7.15
2022-11-15T13:47:46.047Z,20.33
2022-11-15T13:50:15.357Z,12.00
2022-11-15T13:52:46.970Z,6.68
2022-11-15T13:55:16.679Z,14.07
2022-11-15T13:57:47.829Z,12.10
2022-11-15T14:00:31.894Z,8.43
2022-11-15T14:03:07.219Z,8.63
2022-11-15T14:05:35.836Z,11.35
2022-11-15T14:08:05.709Z,4.70
2022-11-15T14:10:36.036Z,6.25
2022-11-15T14:13:07.071Z,7.85
2022-11-15T14:15:36.835Z,5.80
2022-11-15T14:18:06.362Z,14.95
2022-11-15T14:20:38.254Z,16.48
2022-11-15T14:23:07.863Z,5.65
2022-11-15T14:25:38.905Z,7.30
2022-11-15T14:28:17.213Z,11.88
2022-11-15T14:30:48.344Z,3.90
2022-11-15T14:33:20.883Z,10.13
2022-11-15T14:35:49.827Z,11.07
2022-11-15T14:38:18.559Z,6.20
2022-11-15T14:40:47.407Z,6.53
2022-11-15T14:43:18.075Z,13.55
2022-11-15T14:45:46.926Z,9.50
2022-11-15T14:48:15.688Z,6.40
2022-11-15T14:50:44.619Z,19.50
2022-11-15T14:53:14.775Z,11.48
2022-11-15T14:55:43.632Z,9.13
2022-11-15T14:58:12.884Z,14.02
2022-11-15T15:00:43.703Z,8.80
2022-11-15T15:03:12.443Z,9.73
2022-11-15T15:05:42.751Z,10.38
2022-11-15T15:08:13.186Z,7.22
2022-11-15T15:10:43.814Z,7.18
2022-11-15T15:13:18.025Z,11.05
2022-11-15T15:15:48.448Z,13.23
2022-11-15T15:18:17.234Z,11.35
2022-11-15T15:20:47.399Z,6.97
2022-11-15T15:23:18.447Z,6.53
2022-11-15T15:25:49.063Z,7.80
2022-11-15T15:28:18.273Z,7.93
2022-11-15T15:30:48.504Z,6.72
2022-11-15T15:33:17.533Z,9.45
2022-11-15T15:35:46.491Z,8.70
2022-11-15T15:38:16.736Z,8.57
2022-11-15T15:40:45.517Z,5.03
2022-11-15T15:43:17.881Z,15.55
2022-11-15T15:45:48.136Z,10.23
2022-11-15T15:48:17.656Z,13.68
2022-11-15T15:50:47.198Z,11.45
2022-11-15T15:53:16.071Z,24.40
2022-11-15T15:55:45.322Z,11.15
2022-11-15T15:58:14.145Z,11.18
2022-11-15T16:00:42.966Z,7.25
2022-11-15T16:03:13.229Z,9.48
2022-11-15T16:05:42.332Z,14.30
2022-11-15T16:08:22.824Z,10.70
2022-11-15T16:10:51.880Z,27.58
2022-11-15T16:13:20.752Z,11.18
2022-11-15T16:15:52.179Z,11.35
2022-11-15T16:18:25.583Z,24.88
2022-11-15T16:20:57.813Z,17.45
2022-11-15T16:23:26.716Z,21.33
2022-11-15T16:25:56.904Z,22.52
2022-11-15T16:28:26.562Z,15.32
2022-11-15T16:31:02.582Z,18.08
2022-11-15T16:33:33.646Z,16.98
2022-11-15T16:36:02.968Z,22.23
2022-11-15T16:38:33.195Z,18.15
2022-11-15T16:41:02.458Z,23.67
2022-11-15T16:43:31.261Z,24.10
2022-11-15T16:46:00.332Z,21.35
2022-11-15T16:48:29.860Z,14.25
2022-11-15T16:51:01.180Z,10.73
2022-11-15T16:53:30.151Z,23.83
2022-11-15T16:55:59.043Z,28.23
2022-11-15T16:58:38.304Z,30.77
2022-11-15T17:01:07.313Z,22.60
2022-11-15T17:03:36.183Z,20.13
2022-11-15T17:06:11.403Z,17.80
2022-11-15T17:08:41.188Z,21.20
2022-11-15T17:11:10.508Z,32.58
2022-11-15T17:13:39.280Z,33.55
2022-11-15T17:16:09.355Z,13.30
2022-11-15T17:18:38.480Z,16.30
2022-11-15T17:21:10.743Z,14.35
2022-11-15T17:23:39.645Z,12.00
2022-11-15T17:26:28.238Z,5.68
2022-11-15T17:28:58.077Z,11.35
2022-11-15T17:31:27.371Z,19.73
2022-11-15T17:33:56.392Z,14.25
2022-11-15T17:36:26.869Z,11.98
2022-11-15T17:38:59.515Z,19.40
2022-11-15T17:44:11.150Z,23.15
2022-11-15T17:46:41.063Z,21.13
2022-11-15T17:49:10.094Z,31.75
2022-11-15T17:51:40.627Z,25.77
2022-11-15T17:54:12.258Z,31.42
2022-11-15T17:56:42.221Z,18.85
2022-11-15T17:59:15.946Z,21.92
2022-11-15T18:01:47.938Z,27.55
2022-11-15T18:04:17.918Z,18.23
2022-11-15T18:06:48.414Z,14.80
2022-11-15T18:09:17.514Z,21.48
2022-11-15T18:11:50.774Z,24.25
2022-11-15T18:14:20.439Z,14.48
2022-11-15T18:16:49.252Z,19.50
2022-11-15T18:19:18.269Z,25.98
2022-11-15T18:21:58.005Z,29.75
2022-11-15T18:24:27.734Z,20.60
2022-11-15T18:27:00.194Z,20.58
2022-11-15T18:29:29.479Z,29.20
2022-11-15T18:32:03.721Z,25.65
2022-11-15T18:34:34.769Z,29.50
2022-11-15T18:37:05.514Z,34.65
2022-11-15T18:39:34.410Z,32.85
2022-11-15T18:42:04.263Z,19.90
2022-11-15T18:44:33.520Z,31.90
2022-11-15T18:47:02.584Z,39.30
2022-11-15T18:49:31.812Z,28.58
2022-11-15T18:52:00.862Z,29.23
2022-11-15T18:54:32.029Z,15.80
2022-11-15T18:57:02.196Z,39.83
2022-11-15T18:59:31.783Z,44.22
2022-11-15T19:02:00.649Z,16.52
2022-11-15T19:04:29.530Z,22.80
2022-11-15T19:06:58.452Z,15.57
2022-11-15T19:09:33.092Z,20.30
2022-11-15T19:12:03.525Z,22.05
2022-11-15T19:14:32.691Z,16.65
2022-11-15T19:17:01.617Z,23.17
2022-11-15T19:19:31.607Z,27.02
2022-11-15T19:22:00.674Z,13.80
2022-11-15T19:24:39.218Z,20.23
2022-11-15T19:27:09.761Z,16.20
2022-11-15T19:29:40.837Z,21.13
2022-11-15T19:32:10.349Z,15.48
2022-11-15T19:34:41.907Z,12.18
2022-11-15T19:37:10.880Z,13.40
2022-11-15T19:39:41.277Z,10.88
2022-11-15T19:42:12.070Z,14.35
2022-11-15T19:44:40.840Z,11.10
2022-11-15T19:47:09.627Z,13.75
2022-11-15T19:49:43.769Z,16.55
2022-11-15T19:52:12.795Z,11.98
2022-11-15T19:54:41.952Z,19.02
2022-11-15T19:57:12.628Z,9.73
2022-11-15T19:59:41.372Z,19.50
2022-11-15T20:02:11.323Z,10.82
2022-11-15T20:04:40.394Z,10.80
2022-11-15T20:07:09.726Z,9.02
2022-11-15T20:09:39.330Z,29.83
2022-11-15T20:12:08.122Z,22.17
2022-11-15T20:14:52.279Z,20.05
2022-11-15T20:17:22.876Z,9.98
2022-11-15T20:19:55.077Z,11.45
2022-11-15T20:24:56.551Z,5.25
2022-11-15T20:27:25.514Z,10.02
2022-11-15T20:29:56.237Z,19.58
2022-11-15T20:32:24.940Z,10.05
2022-11-15T20:34:54.179Z,10.38
2022-11-15T20:37:23.207Z,11.20
2022-11-15T20:39:51.964Z,16.30
2022-11-15T20:42:20.818Z,25.17
2022-11-15T20:44:49.680Z,6.88
2022-11-15T20:47:20.317Z,17.52
2022-11-15T20:49:49.650Z,13.48
2022-11-15T20:52:18.639Z,19.33
2022-11-15T20:54:47.626Z,14.10
2022-11-15T20:57:17.118Z,30.42
2022-11-15T20:59:46.907Z,10.63
2022-11-15T21:02:15.997Z,13.38
2022-11-15T21:04:46.456Z,8.40
2022-11-15T21:07:15.404Z,8.15
2022-11-15T21:10:01.523Z,9.82
2022-11-15T21:12:33.461Z,11.82
2022-11-15T21:15:02.318Z,7.03
2022-11-15T21:17:32.023Z,6.32
2022-11-15T21:20:03.301Z,9.25
2022-11-15T21:22:32.895Z,7.15
2022-11-15T21:25:01.671Z,9.02
2022-11-15T21:27:32.458Z,10.45
2022-11-15T21:30:01.463Z,10.40
2022-11-15T21:32:32.962Z,9.63
2022-11-15T21:35:03.226Z,7.05
2022-11-15T21:37:32.436Z,22.50
2022-11-15T21:40:01.411Z,9.77
2022-11-15T21:42:31.835Z,6.18
2022-11-15T21:45:00.852Z,9.93
2022-11-15T21:47:32.464Z,10.25
2022-11-15T21:50:02.843Z,13.18
2022-11-15T21:52:31.948Z,13.18
2022-11-15T21:55:00.746Z,7.00
2022-11-15T21:57:30.436Z,12.38
2022-11-15T22:00:30.804Z,14.43
2022-11-15T22:02:59.803Z,13.18
2022-11-15T22:05:29.941Z,9.93
2022-11-15T22:07:58.607Z,8.93
2022-11-15T22:10:27.565Z,7.63
2022-11-15T22:12:56.583Z,12.00
2022-11-15T22:15:25.393Z,12.90
2022-11-15T22:18:01.385Z,9.57
2022-11-15T22:20:44.369Z,9.20
2022-11-15T22:23:13.917Z,9.85
2022-11-15T22:25:42.533Z,16.30
2022-11-15T22:28:11.172Z,11.70
2022-11-15T22:30:41.346Z,10.10
2022-11-15T22:33:10.040Z,12.63
2022-11-15T22:35:40.920Z,9.43
2022-11-15T22:38:09.813Z,8.32
2022-11-15T22:40:38.877Z,12.95
2022-11-15T22:43:07.886Z,21.27
2022-11-15T22:45:37.028Z,7.25
2022-11-15T22:48:11.492Z,6.68
2022-11-15T22:50:41.572Z,10.68
2022-11-15T22:53:10.238Z,14.55
2022-11-15T22:55:39.235Z,6.95
2022-11-15T22:58:08.881Z,10.73
2022-11-15T23:00:38.863Z,8.23
2022-11-15T23:03:07.647Z,11.15
2022-11-15T23:05:38.882Z,6.30
2022-11-15T23:08:09.297Z,9.57
2022-11-15T23:10:56.078Z,9.02
2022-11-15T23:13:25.454Z,11.85
2022-11-15T23:16:21.475Z,11.65
2022-11-15T23:18:54.447Z,3.83
2022-11-15T23:21:38.042Z,13.15
2022-11-15T23:24:10.484Z,5.45
2022-11-15T23:26:39.737Z,8.48
2022-11-15T23:29:09.578Z,6.40
2022-11-15T23:32:01.670Z,5.75
2022-11-15T23:34:31.582Z,19.55
2022-11-15T23:37:00.480Z,5.38
2022-11-15T23:39:30.661Z,8.80
2022-11-15T23:42:01.163Z,5.95
2022-11-15T23:44:33.317Z,4.78
2022-11-15T23:47:01.897Z,12.10
2022-11-15T23:49:30.564Z,10.40
2022-11-15T23:51:59.233Z,7.05
2022-11-15T23:54:28.090Z,16.23
2022-11-15T23:56:58.240Z,10.45
2022-11-15T23:59:26.932Z,9.48
